Time;durP1;ratioP1;P1;durP2;ratioP2;P2;SDS_P1;SDS_P2;PMS_P1;PMS_P2;Temp;Humidity;BMP_temperature;BMP_pressure;BME280_temperature;BME280_humidity;BME280_pressure;Samples;Min_cycle;Max_cycle;Signal;HPM_P1;HPM_P2
2021/10/08 00:00:59;;;;;;;4.43;2.60;;;;;;;-143.37;100.00;65745.06;5054294;28;20229;-72
2021/10/08 00:03:25;;;;;;;3.87;2.57;;;;;;;-143.37;100.00;65745.06;5052804;28;20683;-72
2021/10/08 00:05:52;;;;;;;7.97;2.57;;;;;;;-143.37;100.00;65745.06;5053208;28;20272;-73
2021/10/08 00:08:18;;;;;;;3.50;2.30;;;;;;;-143.37;100.00;65745.06;5053091;28;20317;-72
2021/10/08 00:10:45;;;;;;;4.27;2.40;;;;;;;-143.37;100.00;65745.06;5053491;28;20302;-72
2021/10/08 00:13:11;;;;;;;2.90;2.03;;;;;;;-143.37;100.00;65745.06;5051885;28;20588;-73
2021/10/08 00:15:38;;;;;;;4.33;2.47;;;;;;;-143.37;100.00;65745.06;5053653;28;20297;-72
2021/10/08 00:18:05;;;;;;;2.63;2.33;;;;;;;-143.37;100.00;65745.06;5053520;28;20234;-73
2021/10/08 00:20:31;;;;;;;7.23;2.97;;;;;;;-143.37;100.00;65745.06;5053540;28;20268;-73
2021/10/08 00:22:58;;;;;;;4.50;2.23;;;;;;;-143.37;100.00;65745.06;5054006;28;20300;-74
2021/10/08 00:25:24;;;;;;;3.77;2.23;;;;;;;-143.37;100.00;65745.06;5076235;28;20214;-74
2021/10/08 00:27:51;;;;;;;4.10;2.40;;;;;;;-143.37;100.00;65745.06;5095651;28;20812;-74
2021/10/08 00:30:17;;;;;;;3.23;2.20;;;;;;;-143.37;100.00;65745.06;5093819;28;20234;-72
2021/10/08 00:32:44;;;;;;;9.37;2.67;;;;;;;-143.37;100.00;65745.06;5093458;28;20213;-73
2021/10/08 00:35:10;;;;;;;3.63;2.43;;;;;;;-143.37;100.00;65745.06;5091143;28;20669;-73
2021/10/08 00:37:37;;;;;;;3.43;2.10;;;;;;;-143.37;100.00;65745.06;5074812;28;20328;-73
2021/10/08 00:40:04;;;;;;;3.27;2.23;;;;;;;-143.37;100.00;65745.06;5086974;28;20665;-72
2021/10/08 00:42:31;;;;;;;4.17;2.30;;;;;;;-143.37;100.00;65745.06;5072684;28;20568;-72
2021/10/08 00:44:57;;;;;;;3.77;2.40;;;;;;;-143.37;100.00;65745.06;5070691;28;20215;-72
2021/10/08 00:47:24;;;;;;;3.47;2.67;;;;;;;-143.37;100.00;65745.06;5053631;28;20222;-73
2021/10/08 00:49:51;;;;;;;2.63;2.00;;;;;;;-143.37;100.00;65745.06;5052397;28;20206;-72
2021/10/08 00:52:18;;;;;;;4.40;2.60;;;;;;;-143.37;100.00;65745.06;5050964;28;20220;-73
2021/10/08 00:54:45;;;;;;;6.40;2.50;;;;;;;-143.37;100.00;65745.06;5051793;28;20201;-72
2021/10/08 00:57:12;;;;;;;2.50;2.00;;;;;;;-143.37;100.00;65745.06;5052133;28;20750;-72
2021/10/08 00:59:38;;;;;;;4.07;2.27;;;;;;;-143.37;100.00;65745.06;5051002;28;20659;-72
2021/10/08 01:34:42;;;;;;;5.77;2.90;;;;;;;-143.37;100.00;65745.06;5108948;27;20488;-72
2021/10/08 01:37:09;;;;;;;4.77;2.63;;;;;;;-143.37;100.00;65745.06;5109620;28;20304;-72
2021/10/08 01:39:35;;;;;;;3.77;2.77;;;;;;;-143.37;100.00;65745.06;5108150;28;20714;-72
2021/10/08 01:42:02;;;;;;;7.50;3.10;;;;;;;-143.37;100.00;65745.06;5109700;28;20206;-72
2021/10/08 01:44:29;;;;;;;3.43;2.60;;;;;;;-143.37;100.00;65745.06;5109333;28;20290;-73
2021/10/08 01:46:55;;;;;;;5.67;3.10;;;;;;;-143.37;100.00;65745.06;5092920;28;20716;-73
2021/10/08 01:49:21;;;;;;;4.13;3.00;;;;;;;-143.37;100.00;65745.06;5089277;28;20204;-72
2021/10/08 01:51:48;;;;;;;3.80;2.70;;;;;;;-143.37;100.00;65745.06;5089323;28;20748;-72
2021/10/08 01:54:14;;;;;;;8.53;2.60;;;;;;;-143.37;100.00;65745.06;5088735;28;20274;-72
2021/10/08 01:56:44;;;;;;;5.53;2.77;;;;;;;-143.37;100.00;65745.06;5088631;28;20204;-72
2021/10/08 01:59:12;;;;;;;4.80;2.70;;;;;;;-143.37;100.00;65745.06;5087629;28;20792;-72
2021/10/08 02:01:40;;;;;;;4.43;2.47;;;;;;;-143.37;100.00;65745.06;5088737;28;20661;-72
2021/10/08 02:04:07;;;;;;;4.80;2.90;;;;;;;-143.37;100.00;65745.06;5087319;28;20197;-73
2021/10/08 02:06:34;;;;;;;8.63;3.10;;;;;;;-143.37;100.00;65745.06;5088609;28;20291;-73
2021/10/08 02:09:02;;;;;;;3.87;2.57;;;;;;;-143.37;100.00;65745.06;5088784;28;20239;-73
2021/10/08 02:11:29;;;;;;;4.97;2.30;;;;;;;-143.37;100.00;65745.06;5088574;28;20291;-72
2021/10/08 02:13:55;;;;;;;4.53;2.20;;;;;;;-143.37;100.00;65745.06;5088089;28;20719;-72
2021/10/08 02:16:22;;;;;;;4.37;2.70;;;;;;;-143.37;100.00;65745.06;5087155;28;20291;-72
2021/10/08 02:18:50;;;;;;;3.93;2.53;;;;;;;-143.37;100.00;65745.06;5088530;28;20267;-72
2021/10/08 02:21:18;;;;;;;3.47;2.83;;;;;;;-143.37;100.00;65745.06;5088528;28;20208;-71
2021/10/08 02:23:44;;;;;;;3.77;2.73;;;;;;;-143.37;100.00;65745.06;5088085;28;20303;-72
2021/10/08 02:26:11;;;;;;;3.63;2.80;;;;;;;-143.37;100.00;65745.06;5105943;28;20645;-71
2021/10/08 02:28:38;;;;;;;3.97;2.87;;;;;;;-143.37;100.00;65745.06;5108626;28;20228;-72
2021/10/08 02:31:05;;;;;;;3.77;2.60;;;;;;;-143.37;100.00;65745.06;5108984;28;20204;-72
2021/10/08 02:33:33;;;;;;;4.67;3.20;;;;;;;-143.37;100.00;65745.06;5108264;28;20223;-71
2021/10/08 02:36:05;;;;;;;4.77;3.07;;;;;;;-143.37;100.00;65745.06;5108192;28;20208;-71
2021/10/08 02:38:33;;;;;;;3.80;2.60;;;;;;;-143.37;100.00;65745.06;5108466;28;20432;-73
2021/10/08 02:41:05;;;;;;;8.93;3.40;;;;;;;-143.37;100.00;65745.06;5108699;28;20214;-72
2021/10/08 02:43:32;;;;;;;5.23;2.90;;;;;;;-143.37;100.00;65745.06;5108127;28;20235;-72
2021/10/08 02:45:59;;;;;;;4.47;2.57;;;;;;;-143.37;100.00;65745.06;5088080;28;20289;-72
2021/10/08 02:48:26;;;;;;;3.20;2.47;;;;;;;-143.37;100.00;65745.06;5074542;28;20228;-73
2021/10/08 02:50:52;;;;;;;3.70;2.90;;;;;;;-143.37;100.00;65745.06;5074531;28;20296;-72
2021/10/08 02:53:19;;;;;;;3.07;2.57;;;;;;;-143.37;100.00;65745.06;5073971;28;20315;-73
2021/10/08 02:55:45;;;;;;;4.50;2.63;;;;;;;-143.37;100.00;65745.06;5073974;28;20300;-73
2021/10/08 02:58:12;;;;;;;7.00;2.90;;;;;;;-143.37;100.00;65745.06;5074880;28;20316;-74
2021/10/08 03:00:38;;;;;;;4.43;2.93;;;;;;;-143.37;100.00;65745.06;5073102;28;20703;-74
2021/10/08 03:03:05;;;;;;;6.83;2.77;;;;;;;-143.37;100.00;65745.06;5074007;28;20586;-72
2021/10/08 03:05:32;;;;;;;4.47;2.57;;;;;;;-143.37;100.00;65745.06;5073589;28;20307;-73
2021/10/08 03:07:58;;;;;;;5.00;2.53;;;;;;;-143.37;100.00;65745.06;5074350;28;20315;-74
2021/10/08 03:10:25;;;;;;;8.20;3.07;;;;;;;-143.37;100.00;65745.06;5074194;28;20205;-73
2021/10/08 03:12:52;;;;;;;4.27;2.77;;;;;;;-143.37;100.00;65745.06;5073978;28;20308;-74
2021/10/08 03:15:18;;;;;;;3.47;2.57;;;;;;;-143.37;100.00;65745.06;5073103;28;20292;-72
2021/10/08 03:17:45;;;;;;;5.77;3.07;;;;;;;-143.37;100.00;65745.06;5073969;28;20612;-74
2021/10/08 03:20:11;;;;;;;5.40;3.10;;;;;;;-143.37;100.00;65745.06;5073851;28;20300;-72
2021/10/08 03:22:38;;;;;;;3.60;2.80;;;;;;;-143.37;100.00;65745.06;5074198;28;20229;-73
2021/10/08 03:25:09;;;;;;;5.07;2.80;;;;;;;-143.37;100.00;65745.06;5081634;28;20410;-73
2021/10/08 03:27:36;;;;;;;5.33;3.27;;;;;;;-143.37;100.00;65745.06;5092758;28;20256;-73
2021/10/08 03:30:05;;;;;;;5.17;2.60;;;;;;;-143.37;100.00;65745.06;5092846;28;20296;-73
2021/10/08 03:32:31;;;;;;;3.53;2.90;;;;;;;-143.37;100.00;65745.06;5093608;28;20303;-73
2021/10/08 03:34:58;;;;;;;3.50;2.77;;;;;;;-143.37;100.00;65745.06;5093123;28;20711;-73
2021/10/08 03:37:33;;;;;;;3.73;2.97;;;;;;;-143.37;100.00;65745.06;5093735;28;20254;-72
2021/10/08 03:39:59;;;;;;;4.87;3.33;;;;;;;-143.37;100.00;65745.06;5093698;28;20257;-72
2021/10/08 03:42:26;;;;;;;3.37;2.97;;;;;;;-143.37;100.00;65745.06;5093575;28;20673;-73
2021/10/08 03:44:57;;;;;;;3.33;2.53;;;;;;;-143.37;100.00;65745.06;5091801;28;20227;-73
2021/10/08 03:47:33;;;;;;;5.83;3.20;;;;;;;-143.37;100.00;65745.06;5074855;28;20321;-72
2021/10/08 03:50:00;;;;;;;5.50;3.13;;;;;;;-143.37;100.00;65745.06;5074526;28;20228;-72
2021/10/08 03:52:28;;;;;;;3.60;2.90;;;;;;;-143.37;100.00;65745.06;5073965;28;20212;-73
2021/10/08 03:54:54;;;;;;;3.37;2.93;;;;;;;-143.37;100.00;65745.06;5074092;28;20229;-74
2021/10/08 03:57:20;;;;;;;3.60;2.90;;;;;;;-143.37;100.00;65745.06;5071559;28;20308;-73
2021/10/08 03:59:47;;;;;;;4.97;3.17;;;;;;;-143.37;100.00;65745.06;5073436;28;20213;-74
2021/10/08 04:02:13;;;;;;;3.87;2.83;;;;;;;-143.37;100.00;65745.06;5072666;28;20205;-72
2021/10/08 04:04:40;;;;;;;4.17;3.07;;;;;;;-143.37;100.00;65745.06;5073223;28;20310;-73
2021/10/08 04:07:06;;;;;;;3.90;3.00;;;;;;;-143.37;100.00;65745.06;5073411;28;20212;-73
2021/10/08 04:09:33;;;;;;;4.30;2.90;;;;;;;-143.37;100.00;65745.06;5073253;28;20205;-73
2021/10/08 04:11:59;;;;;;;4.90;2.83;;;;;;;-143.37;100.00;65745.06;5074595;28;20244;-73
2021/10/08 04:14:30;;;;;;;4.13;2.93;;;;;;;-143.37;100.00;65745.06;5072599;28;20256;-72
2021/10/08 04:16:57;;;;;;;5.87;3.30;;;;;;;-143.37;100.00;65745.06;5071570;28;20236;-73
2021/10/08 04:19:23;;;;;;;3.93;3.03;;;;;;;-143.37;100.00;65745.06;5072920;28;20212;-73
2021/10/08 04:21:50;;;;;;;3.97;3.13;;;;;;;-143.37;100.00;65745.06;5073171;28;20205;-74
2021/10/08 04:24:16;;;;;;;4.67;3.10;;;;;;;-143.37;100.00;65745.06;5074342;28;20251;-74
2021/10/08 04:26:43;;;;;;;4.83;3.07;;;;;;;-143.37;100.00;65745.06;5094345;28;20295;-74
2021/10/08 04:29:09;;;;;;;5.57;3.20;;;;;;;-143.37;100.00;65745.06;5095365;28;20315;-74
2021/10/08 04:31:36;;;;;;;6.27;3.90;;;;;;;-143.37;100.00;65745.06;5092938;28;20291;-73
2021/10/08 04:34:02;;;;;;;5.63;3.20;;;;;;;-143.37;100.00;65745.06;5092382;28;20323;-73
2021/10/08 04:36:28;;;;;;;6.10;3.37;;;;;;;-143.37;100.00;65745.06;5092584;28;20204;-72
2021/10/08 04:38:55;;;;;;;4.40;3.20;;;;;;;-143.37;100.00;65745.06;5091247;28;20701;-73
2021/10/08 04:41:21;;;;;;;4.97;3.47;;;;;;;-143.37;100.00;65745.06;5093395;28;20236;-72
2021/10/08 04:43:48;;;;;;;6.47;3.30;;;;;;;-143.37;100.00;65745.06;5093699;28;20287;-73
2021/10/08 04:46:14;;;;;;;6.83;3.77;;;;;;;-143.37;100.00;65745.06;5083619;28;20458;-73
2021/10/08 04:48:41;;;;;;;8.63;2.70;;;;;;;-143.37;100.00;65745.06;5072724;28;20225;-72
2021/10/08 04:51:07;;;;;;;4.97;3.37;;;;;;;-143.37;100.00;65745.06;5072302;28;20292;-73
2021/10/08 04:53:34;;;;;;;5.43;3.10;;;;;;;-143.37;100.00;65745.06;5071783;28;20256;-73
2021/10/08 04:56:00;;;;;;;6.70;3.50;;;;;;;-143.37;100.00;65745.06;5071843;28;20244;-73
2021/10/08 04:58:27;;;;;;;5.57;3.67;;;;;;;-143.37;100.00;65745.06;5072497;28;20256;-73
2021/10/08 05:00:53;;;;;;;4.03;3.10;;;;;;;-143.37;100.00;65745.06;5073521;28;20216;-73
2021/10/08 05:03:20;;;;;;;5.27;3.60;;;;;;;-143.37;100.00;65745.06;5075669;28;20227;-73
2021/10/08 05:05:51;;;;;;;4.50;3.17;;;;;;;-143.37;100.00;65745.06;5072622;28;20201;-72
2021/10/08 05:08:21;;;;;;;8.27;3.80;;;;;;;-143.37;100.00;65745.06;5071445;28;20233;-72
2021/10/08 05:10:49;;;;;;;6.40;3.53;;;;;;;-143.37;100.00;65745.06;5072052;28;20304;-73
2021/10/08 05:13:16;;;;;;;5.00;3.70;;;;;;;-143.37;100.00;65745.06;5071486;28;20303;-72
2021/10/08 05:15:43;;;;;;;4.23;3.20;;;;;;;-143.37;100.00;65745.06;5071732;28;20292;-74
2021/10/08 05:18:10;;;;;;;6.23;3.60;;;;;;;-143.37;100.00;65745.06;5070634;28;20312;-72
2021/10/08 05:20:37;;;;;;;5.27;3.70;;;;;;;-143.37;100.00;65745.06;5071914;28;20296;-72
2021/10/08 05:23:03;;;;;;;6.57;3.20;;;;;;;-143.37;100.00;65745.06;5070135;28;20300;-73
2021/10/08 05:25:30;;;;;;;4.57;3.77;;;;;;;-143.37;100.00;65745.06;5083083;28;20425;-73
2021/10/08 05:27:57;;;;;;;4.67;3.37;;;;;;;-143.37;100.00;65745.06;5091619;28;20251;-73
2021/10/08 05:30:24;;;;;;;4.67;3.57;;;;;;;-143.37;100.00;65745.06;5087671;28;20209;-73
2021/10/08 05:32:50;;;;;;;6.97;3.40;;;;;;;-143.37;100.00;65745.06;5072454;28;20303;-74
2021/10/08 05:35:17;;;;;;;7.63;3.37;;;;;;;-143.37;100.00;65745.06;5081271;28;20299;-74
2021/10/08 05:37:44;;;;;;;7.90;4.00;;;;;;;-143.37;100.00;65745.06;5083692;28;20577;-72
2021/10/08 05:40:11;;;;;;;6.87;3.73;;;;;;;-143.37;100.00;65745.06;5082267;28;20209;-73
2021/10/08 05:42:37;;;;;;;4.83;3.83;;;;;;;-143.37;100.00;65745.06;5077214;28;20836;-72
2021/10/08 05:45:04;;;;;;;6.60;3.73;;;;;;;-143.37;100.00;65745.06;5079484;28;20239;-71
2021/10/08 05:47:31;;;;;;;5.30;3.70;;;;;;;-143.37;100.00;65745.06;5091269;28;20315;-71
2021/10/08 05:49:58;;;;;;;7.33;3.90;;;;;;;-143.37;100.00;65745.06;5091466;28;20210;-72
2021/10/08 05:52:24;;;;;;;4.43;3.60;;;;;;;-143.37;100.00;65745.06;5090168;28;20208;-70
2021/10/08 05:54:50;;;;;;;5.33;3.50;;;;;;;-143.37;100.00;65745.06;5090697;28;20701;-70
2021/10/08 05:57:17;;;;;;;3.87;3.27;;;;;;;-143.37;100.00;65745.06;5090151;28;20236;-71
2021/10/08 05:59:44;;;;;;;6.87;4.07;;;;;;;-143.37;100.00;65745.06;5081363;28;20205;-71
2021/10/08 06:02:11;;;;;;;5.60;3.77;;;;;;;-143.37;100.00;65745.06;5083813;28;20196;-72
2021/10/08 06:04:38;;;;;;;4.90;3.43;;;;;;;-143.37;100.00;65745.06;5080102;28;20629;-73
2021/10/08 06:07:06;;;;;;;5.77;3.23;;;;;;;-143.37;100.00;65745.06;5083629;28;20239;-73
2021/10/08 06:09:34;;;;;;;4.13;3.30;;;;;;;-143.37;100.00;65745.06;5089160;28;20209;-70
2021/10/08 06:12:02;;;;;;;7.83;3.83;;;;;;;-143.37;100.00;65745.06;5080211;28;20211;-73
2021/10/08 06:14:28;;;;;;;4.80;3.40;;;;;;;-143.37;100.00;65745.06;5088503;28;20300;-73
2021/10/08 06:16:55;;;;;;;5.50;3.97;;;;;;;-143.37;100.00;65745.06;5088398;28;20291;-72
2021/10/08 06:19:21;;;;;;;5.57;3.47;;;;;;;-143.37;100.00;65745.06;5088532;28;20243;-72
2021/10/08 06:21:48;;;;;;;6.83;4.23;;;;;;;-143.37;100.00;65745.06;5092809;28;20287;-71
2021/10/08 06:24:14;;;;;;;6.13;3.63;;;;;;;-143.37;100.00;65745.06;5092711;28;20616;-71
2021/10/08 06:26:41;;;;;;;5.10;3.50;;;;;;;-143.37;100.00;65745.06;5092567;28;20283;-71
2021/10/08 06:29:07;;;;;;;7.53;3.87;;;;;;;-143.37;100.00;65745.06;5092842;28;20307;-71
2021/10/08 06:31:34;;;;;;;6.47;4.03;;;;;;;-143.37;100.00;65745.06;5092602;28;20236;-70
2021/10/08 06:34:00;;;;;;;6.00;3.60;;;;;;;-143.37;100.00;65745.06;5092584;28;20228;-70
2021/10/08 06:36:27;;;;;;;4.80;3.70;;;;;;;-143.37;100.00;65745.06;5091947;28;20212;-72
2021/10/08 06:38:53;;;;;;;4.47;3.50;;;;;;;-143.37;100.00;65745.06;5092710;28;20263;-72
2021/10/08 06:41:20;;;;;;;4.53;3.20;;;;;;;-143.37;100.00;65745.06;5092902;28;20287;-72
2021/10/08 06:43:46;;;;;;;6.77;3.63;;;;;;;-143.37;100.00;65745.06;5092340;28;20291;-71
2021/10/08 06:46:13;;;;;;;4.97;3.50;;;;;;;-143.37;100.00;65745.06;5092277;28;20291;-71
2021/10/08 06:48:39;;;;;;;6.70;4.00;;;;;;;-143.37;100.00;65745.06;5092631;28;20236;-72
2021/10/08 06:51:06;;;;;;;5.67;3.40;;;;;;;-143.37;100.00;65745.06;5092233;28;20247;-72
2021/10/08 06:53:33;;;;;;;4.23;3.33;;;;;;;-143.37;100.00;65745.06;5085938;28;20247;-72
2021/10/08 06:55:59;;;;;;;7.97;4.07;;;;;;;-143.37;100.00;65745.06;5090999;28;20256;-70
2021/10/08 06:58:26;;;;;;;5.80;3.73;;;;;;;-143.37;100.00;65745.06;5080105;28;20355;-70
2021/10/08 07:00:54;;;;;;;5.17;3.60;;;;;;;-143.37;100.00;65745.06;5087848;28;20242;-71
2021/10/08 07:03:21;;;;;;;8.23;3.50;;;;;;;-143.37;100.00;65745.06;5087367;28;20208;-70
2021/10/08 07:05:48;;;;;;;5.57;3.73;;;;;;;-143.37;100.00;65745.06;5072096;28;20327;-72
2021/10/08 07:08:14;;;;;;;7.03;3.77;;;;;;;-143.37;100.00;65745.06;5072802;28;20221;-70
2021/10/08 07:10:41;;;;;;;4.70;3.63;;;;;;;-143.37;100.00;65745.06;5073959;28;20292;-72
2021/10/08 07:13:07;;;;;;;5.87;3.83;;;;;;;-143.37;100.00;65745.06;5086554;28;20291;-72
2021/10/08 07:15:34;;;;;;;9.50;3.83;;;;;;;-143.37;100.00;65745.06;5087307;28;20307;-71
2021/10/08 07:18:01;;;;;;;5.43;3.80;;;;;;;-143.37;100.00;65745.06;5086433;28;20252;-72
2021/10/08 07:20:29;;;;;;;7.80;3.80;;;;;;;-143.37;100.00;65745.06;5086629;28;20212;-71
2021/10/08 07:22:57;;;;;;;5.60;4.40;;;;;;;-143.37;100.00;65745.06;5087120;28;20880;-71
2021/10/08 07:25:29;;;;;;;4.23;3.27;;;;;;;-143.37;100.00;65745.06;5086087;28;20292;-70
2021/10/08 07:27:56;;;;;;;6.50;3.80;;;;;;;-143.37;100.00;65745.06;5084814;28;20255;-72
2021/10/08 07:30:23;;;;;;;5.90;4.00;;;;;;;-143.37;100.00;65745.06;5085480;28;20234;-76
2021/10/08 07:32:51;;;;;;;6.73;3.73;;;;;;;-143.37;100.00;65745.06;5087156;28;20930;-74
2021/10/08 07:35:17;;;;;;;5.60;3.70;;;;;;;-143.37;100.00;65745.06;5085822;28;20220;-75
2021/10/08 07:37:44;;;;;;;5.30;3.87;;;;;;;-143.37;100.00;65745.06;5086248;28;20692;-73
2021/10/08 07:40:12;;;;;;;5.63;4.07;;;;;;;-143.37;100.00;65745.06;5085270;28;20291;-75
2021/10/08 07:42:40;;;;;;;6.20;3.80;;;;;;;-143.37;100.00;65745.06;5081106;28;20708;-75
2021/10/08 07:45:08;;;;;;;9.80;4.13;;;;;;;-143.37;100.00;65745.06;5085485;28;20652;-71
2021/10/08 07:47:35;;;;;;;9.27;4.13;;;;;;;-143.37;100.00;65745.06;5066984;28;20246;-72
2021/10/08 07:50:02;;;;;;;5.90;4.33;;;;;;;-143.37;100.00;65745.06;5076461;28;20205;-71
2021/10/08 07:52:29;;;;;;;7.13;4.37;;;;;;;-143.37;100.00;65745.06;5067815;28;20201;-71
2021/10/08 07:54:55;;;;;;;6.40;4.60;;;;;;;-143.37;100.00;65745.06;5064810;28;20229;-70
2021/10/08 07:57:22;;;;;;;8.80;4.30;;;;;;;-143.37;100.00;65745.06;5065238;28;20268;-72
2021/10/08 07:59:48;;;;;;;9.27;4.57;;;;;;;-143.37;100.00;65745.06;5075501;28;20207;-72
2021/10/08 08:02:15;;;;;;;7.80;4.10;;;;;;;-143.37;100.00;65745.06;5075388;28;20203;-71
2021/10/08 08:04:41;;;;;;;9.47;4.63;;;;;;;-143.37;100.00;65745.06;5081265;28;20251;-71
2021/10/08 08:07:08;;;;;;;8.27;4.67;;;;;;;-143.37;100.00;65745.06;5085738;28;20299;-72
2021/10/08 08:09:34;;;;;;;6.40;4.90;;;;;;;-143.37;100.00;65745.06;5085816;28;20862;-71
2021/10/08 08:12:02;;;;;;;7.37;4.93;;;;;;;-143.37;100.00;65745.06;5085351;28;20208;-70
2021/10/08 08:14:28;;;;;;;9.23;5.30;;;;;;;-143.37;100.00;65745.06;5085616;28;20236;-71
2021/10/08 08:16:54;;;;;;;7.03;4.90;;;;;;;-143.37;100.00;65745.06;5084714;28;20219;-70
2021/10/08 08:19:21;;;;;;;5.60;4.17;;;;;;;-143.37;100.00;65745.06;5085277;28;20235;-71
2021/10/08 08:21:47;;;;;;;6.37;4.83;;;;;;;-143.37;100.00;65745.06;5085977;28;20283;-71
2021/10/08 08:24:14;;;;;;;6.80;5.23;;;;;;;-143.37;100.00;65745.06;5087942;28;20211;-70
2021/10/08 08:26:40;;;;;;;6.50;5.10;;;;;;;-143.37;100.00;65745.06;5089912;28;20669;-70
2021/10/08 08:29:07;;;;;;;6.77;4.57;;;;;;;-143.37;100.00;65745.06;5089220;28;20231;-71
2021/10/08 08:31:33;;;;;;;8.90;4.63;;;;;;;-143.37;100.00;65745.06;5089379;28;20204;-71
2021/10/08 08:34:00;;;;;;;6.17;4.43;;;;;;;-143.37;100.00;65745.06;5081343;28;20200;-70
2021/10/08 08:36:30;;;;;;;7.60;5.00;;;;;;;-143.37;100.00;65745.06;5074123;28;20224;-71
2021/10/08 08:38:59;;;;;;;7.75;4.63;;;;;;;-143.37;100.00;65745.06;5069638;28;20264;-71
2021/10/08 08:41:26;;;;;;;7.43;4.70;;;;;;;-143.37;100.00;65745.06;5087510;28;20204;-71
2021/10/08 08:43:59;;;;;;;8.95;4.38;;;;;;;-143.37;100.00;65745.06;5088739;28;20780;-70
2021/10/08 08:46:25;;;;;;;7.82;4.78;;;;;;;-143.37;100.00;65745.06;5079620;28;20208;-71
2021/10/08 08:48:53;;;;;;;7.93;4.90;;;;;;;-143.37;100.00;65745.06;5070552;28;20237;-70
2021/10/08 08:51:19;;;;;;;8.13;4.93;;;;;;;-143.37;100.00;65745.06;5078541;28;20219;-70
2021/10/08 08:53:47;;;;;;;8.27;5.57;;;;;;;-143.37;100.00;65745.06;5089193;28;20209;-71
2021/10/08 08:56:13;;;;;;;13.02;5.88;;;;;;;-143.37;100.00;65745.06;5087756;28;20220;-72
2021/10/08 08:58:40;;;;;;;7.82;5.53;;;;;;;-143.37;100.00;65745.06;5078441;28;20263;-72
2021/10/08 09:01:06;;;;;;;10.00;5.88;;;;;;;-143.37;100.00;65745.06;5077303;28;20255;-73
2021/10/08 09:03:33;;;;;;;8.40;6.25;;;;;;;-143.37;100.00;65745.06;5083361;28;20208;-72
2021/10/08 09:05:59;;;;;;;8.40;5.43;;;;;;;-143.37;100.00;65745.06;5089394;28;20283;-73
2021/10/08 09:08:33;;;;;;;7.50;5.60;;;;;;;-143.37;100.00;65745.06;5087882;28;20213;-71
2021/10/08 09:11:03;;;;;;;9.27;5.50;;;;;;;-143.37;100.00;65745.06;5083677;28;20193;-72
2021/10/08 09:13:29;;;;;;;7.90;5.63;;;;;;;-143.37;100.00;65745.06;5074417;28;20652;-72
2021/10/08 09:15:58;;;;;;;8.98;5.65;;;;;;;-143.37;100.00;65745.06;5069846;28;20232;-73
2021/10/08 09:18:27;;;;;;;8.43;5.85;;;;;;;-143.37;100.00;65745.06;5069318;28;20257;-72
2021/10/08 09:21:00;;;;;;;9.20;5.63;;;;;;;-143.37;100.00;65745.06;5068892;28;20211;-72
2021/10/08 09:23:46;;;;;;;8.60;5.63;;;;;;;-143.37;100.00;65745.06;5069493;28;20201;-71
2021/10/08 09:26:23;;;;;;;7.72;5.43;;;;;;;-143.37;100.00;65745.06;5087313;28;20222;-72
2021/10/08 09:29:01;;;;;;;7.47;4.97;;;;;;;-143.37;100.00;65745.06;5087106;28;20716;-73
2021/10/08 09:31:41;;;;;;;11.02;5.43;;;;;;;-143.37;100.00;65745.06;5087050;28;20200;-73
2021/10/08 09:34:21;;;;;;;7.72;5.63;;;;;;;-143.37;100.00;65745.06;5096607;28;20212;-72
2021/10/08 09:36:55;;;;;;;6.82;4.90;;;;;;;-143.37;100.00;65745.06;5089331;28;20269;-71
2021/10/08 09:39:32;;;;;;;7.43;5.00;;;;;;;-143.37;100.00;65745.06;5089175;28;20222;-71
2021/10/08 09:42:12;;;;;;;8.82;4.82;;;;;;;-143.37;100.00;65745.06;5090109;28;20692;-70
2021/10/08 09:44:48;;;;;;;7.00;4.85;;;;;;;-143.37;100.00;65745.06;5079945;28;20242;-70
2021/10/08 09:47:17;;;;;;;6.43;4.43;;;;;;;-143.37;100.00;65745.06;5090953;28;20287;-72
2021/10/08 09:49:46;;;;;;;6.43;4.10;;;;;;;-143.37;100.00;65745.06;5090575;28;20236;-71
2021/10/08 09:52:30;;;;;;;6.28;4.70;;;;;;;-143.37;100.00;65745.06;5089431;28;20304;-73
2021/10/08 09:55:03;;;;;;;7.15;4.30;;;;;;;-143.37;100.00;65745.06;5091610;28;20266;-72
2021/10/08 09:57:49;;;;;;;5.18;4.13;;;;;;;-143.37;100.00;65745.06;5095204;28;20995;-72
2021/10/08 10:00:40;;;;;;;5.38;3.60;;;;;;;-143.37;100.00;65745.06;5093998;28;20818;-70
2021/10/08 10:03:09;;;;;;;5.97;4.20;;;;;;;-143.37;100.00;65745.06;5091811;28;20204;-71
2021/10/08 10:05:35;;;;;;;6.78;4.20;;;;;;;-143.37;100.00;65745.06;5095298;28;20685;-71
2021/10/08 10:08:03;;;;;;;6.10;4.35;;;;;;;-143.37;100.00;65745.06;5093994;28;20266;-72
2021/10/08 10:10:31;;;;;;;6.30;4.53;;;;;;;-143.37;100.00;65745.06;5094430;28;20208;-72
2021/10/08 10:12:59;;;;;;;9.13;3.92;;;;;;;-143.37;100.00;65745.06;5095302;28;20205;-72
2021/10/08 10:15:27;;;;;;;5.43;4.10;;;;;;;-143.37;100.00;65745.06;5076893;28;20313;-72
2021/10/08 10:17:56;;;;;;;9.63;4.43;;;;;;;-143.37;100.00;65745.06;5095238;28;20311;-72
2021/10/08 10:20:24;;;;;;;7.72;4.97;;;;;;;-143.37;100.00;65745.06;5095380;28;20262;-73
2021/10/08 10:22:52;;;;;;;6.75;4.47;;;;;;;-143.37;100.00;65745.06;5093598;28;20210;-72
2021/10/08 10:25:19;;;;;;;6.03;4.47;;;;;;;-143.37;100.00;65745.06;5094491;28;20232;-71
2021/10/08 10:27:46;;;;;;;6.82;4.70;;;;;;;-143.37;100.00;65745.06;5095559;28;20260;-71
2021/10/08 10:30:13;;;;;;;6.82;5.25;;;;;;;-143.37;100.00;65745.06;5096332;28;20205;-71
2021/10/08 10:32:45;;;;;;;6.30;4.75;;;;;;;-143.37;100.00;65745.06;5095082;28;20208;-72
2021/10/08 10:35:41;;;;;;;7.00;5.10;;;;;;;-143.37;100.00;65745.06;5094472;28;20302;-72
2021/10/08 10:38:27;;;;;;;7.25;4.80;;;;;;;-143.37;100.00;65745.06;5095586;28;20224;-72
2021/10/08 10:41:09;;;;;;;6.57;4.78;;;;;;;-143.37;100.00;65745.06;5094886;28;20255;-73
2021/10/08 10:43:45;;;;;;;8.13;5.43;;;;;;;-143.37;100.00;65745.06;5092971;28;20575;-72
2021/10/08 10:46:20;;;;;;;9.70;5.40;;;;;;;-143.37;100.00;65745.06;5083567;28;20215;-72
2021/10/08 10:49:10;;;;;;;8.88;6.18;;;;;;;-143.37;100.00;65745.06;5073948;28;20224;-72
2021/10/08 10:51:37;;;;;;;7.35;6.07;;;;;;;-143.37;100.00;65745.06;5073833;28;20634;-71
2021/10/08 10:54:03;;;;;;;8.32;5.57;;;;;;;-143.37;100.00;65745.06;5073233;28;20578;-73
2021/10/08 10:56:35;;;;;;;8.98;5.78;;;;;;;-143.37;100.00;65745.06;5072596;28;20271;-72
2021/10/08 10:59:24;;;;;;;9.88;5.85;;;;;;;-143.37;100.00;65745.06;5073116;28;20256;-73
2021/10/08 11:04:48;;;;;;;7.28;5.45;;;;;;;-143.37;100.00;65745.06;5072744;28;20232;-71
2021/10/08 11:07:23;;;;;;;12.45;5.85;;;;;;;-143.37;100.00;65745.06;5072522;28;20304;-72
2021/10/08 11:10:04;;;;;;;11.38;6.68;;;;;;;-143.37;100.00;65745.06;5072762;28;20295;-73
2021/10/08 11:12:40;;;;;;;10.05;6.18;;;;;;;-143.37;100.00;65745.06;5072417;28;20205;-72
2021/10/08 11:15:21;;;;;;;7.93;5.70;;;;;;;-143.37;100.00;65745.06;5071955;28;20569;-70
2021/10/08 11:17:58;;;;;;;14.63;6.15;;;;;;;-143.37;100.00;65745.06;5070943;28;20789;-72
2021/10/08 11:20:28;;;;;;;10.32;6.25;;;;;;;-143.37;100.00;65745.06;5073018;28;20222;-72
2021/10/08 11:23:07;;;;;;;8.18;5.78;;;;;;;-143.37;100.00;65745.06;5072997;28;20252;-71
2021/10/08 11:25:45;;;;;;;10.40;5.75;;;;;;;-143.37;100.00;65745.06;5084698;28;20254;-72
2021/10/08 11:28:14;;;;;;;10.70;6.05;;;;;;;-143.37;100.00;65745.06;5092578;28;20262;-72
2021/10/08 11:30:42;;;;;;;6.78;5.43;;;;;;;-143.37;100.00;65745.06;5092707;28;20253;-71
2021/10/08 11:33:08;;;;;;;8.60;6.10;;;;;;;-143.37;100.00;65745.06;5092473;28;20713;-71
2021/10/08 11:35:36;;;;;;;11.95;6.18;;;;;;;-143.37;100.00;65745.06;5092008;28;20232;-71
2021/10/08 11:38:04;;;;;;;9.18;5.32;;;;;;;-143.37;100.00;65745.06;5092239;28;20292;-71
2021/10/08 11:40:41;;;;;;;7.63;5.80;;;;;;;-143.37;100.00;65745.06;5092819;28;20212;-72
2021/10/08 11:43:30;;;;;;;8.00;5.60;;;;;;;-143.37;100.00;65745.06;5092401;28;20242;-72
2021/10/08 11:46:34;;;;;;;9.70;5.10;;;;;;;-143.37;100.00;65745.06;5085596;28;20586;-71
2021/10/08 11:48:58;;;;;;;8.45;5.50;;;;;;;-143.37;100.00;65745.06;5070907;28;20673;-72
2021/10/08 11:51:25;;;;;;;11.32;5.38;;;;;;;-143.37;100.00;65745.06;5072354;28;20236;-71